sensor_id;sensor_type;location;lat;lon;timestamp;temperature;humidity
13713;DHT22;6928;50.546;7.120;2023-02-15T00:00:51;1.21;87.66
13713;DHT22;6928;50.546;7.120;2023-02-15T00:03:20;1.28;87.32
13713;DHT22;6928;50.546;7.120;2023-02-15T00:05:46;1.31;87.46
13713;DHT22;6928;50.546;7.120;2023-02-15T00:08:14;1.29;87.61
13713;DHT22;6928;50.546;7.120;2023-02-15T00:10:41;1.36;87.62
13713;DHT22;6928;50.546;7.120;2023-02-15T00:13:08;1.19;87.83
13713;DHT22;6928;50.546;7.120;2023-02-15T00:15:34;1.18;87.89
13713;DHT22;6928;50.546;7.120;2023-02-15T00:18:01;1.08;88.19
13713;DHT22;6928;50.546;7.120;2023-02-15T00:20:28;0.80;89.41
13713;DHT22;6928;50.546;7.120;2023-02-15T00:22:55;1.02;88.88
13713;DHT22;6928;50.546;7.120;2023-02-15T00:25:23;1.09;88.89
13713;DHT22;6928;50.546;7.120;2023-02-15T00:27:49;1.16;88.42
13713;DHT22;6928;50.546;7.120;2023-02-15T00:30:16;1.21;88.53
13713;DHT22;6928;50.546;7.120;2023-02-15T00:32:43;1.50;88.52
13713;DHT22;6928;50.546;7.120;2023-02-15T00:35:10;1.21;88.23
13713;DHT22;6928;50.546;7.120;2023-02-15T00:37:37;1.29;88.86
13713;DHT22;6928;50.546;7.120;2023-02-15T00:40:05;1.28;88.80
13713;DHT22;6928;50.546;7.120;2023-02-15T00:42:33;1.13;89.43
13713;DHT22;6928;50.546;7.120;2023-02-15T00:45:00;1.35;89.17
13713;DHT22;6928;50.546;7.120;2023-02-15T00:47:27;1.42;88.57
13713;DHT22;6928;50.546;7.120;2023-02-15T00:49:53;1.09;89.52
13713;DHT22;6928;50.546;7.120;2023-02-15T00:52:20;1.22;89.46
13713;DHT22;6928;50.546;7.120;2023-02-15T00:54:47;1.44;89.36
13713;DHT22;6928;50.546;7.120;2023-02-15T00:57:13;1.12;89.70
13713;DHT22;6928;50.546;7.120;2023-02-15T00:59:41;1.19;89.83
13713;DHT22;6928;50.546;7.120;2023-02-15T01:02:08;1.25;90.24
13713;DHT22;6928;50.546;7.120;2023-02-15T01:04:35;1.16;90.06
13713;DHT22;6928;50.546;7.120;2023-02-15T01:07:01;0.91;91.44
13713;DHT22;6928;50.546;7.120;2023-02-15T01:09:29;1.11;91.28
13713;DHT22;6928;50.546;7.120;2023-02-15T01:11:56;1.31;90.45
13713;DHT22;6928;50.546;7.120;2023-02-15T01:14:22;1.31;90.02
13713;DHT22;6928;50.546;7.120;2023-02-15T01:16:50;1.31;90.34
13713;DHT22;6928;50.546;7.120;2023-02-15T01:19:17;1.25;90.73
13713;DHT22;6928;50.546;7.120;2023-02-15T01:21:43;1.25;90.67
13713;DHT22;6928;50.546;7.120;2023-02-15T01:24:12;1.46;90.48
13713;DHT22;6928;50.546;7.120;2023-02-15T01:26:39;1.40;90.22
13713;DHT22;6928;50.546;7.120;2023-02-15T01:29:06;1.38;90.37
13713;DHT22;6928;50.546;7.120;2023-02-15T01:31:33;1.23;90.63
13713;DHT22;6928;50.546;7.120;2023-02-15T01:34:01;1.36;90.70
13713;DHT22;6928;50.546;7.120;2023-02-15T01:36:28;1.35;90.98
13713;DHT22;6928;50.546;7.120;2023-02-15T01:38:55;1.12;91.07
13713;DHT22;6928;50.546;7.120;2023-02-15T01:41:22;1.22;91.08
13713;DHT22;6928;50.546;7.120;2023-02-15T01:43:52;1.23;91.02
13713;DHT22;6928;50.546;7.120;2023-02-15T01:46:24;1.26;90.85
13713;DHT22;6928;50.546;7.120;2023-02-15T01:48:55;1.32;90.72
13713;DHT22;6928;50.546;7.120;2023-02-15T01:51:27;1.25;90.75
13713;DHT22;6928;50.546;7.120;2023-02-15T01:54:01;1.23;90.59
13713;DHT22;6928;50.546;7.120;2023-02-15T01:56:32;1.12;91.10
13713;DHT22;6928;50.546;7.120;2023-02-15T01:59:05;1.13;90.78
13713;DHT22;6928;50.546;7.120;2023-02-15T02:01:32;1.06;90.97
13713;DHT22;6928;50.546;7.120;2023-02-15T02:04:04;1.15;90.68
13713;DHT22;6928;50.546;7.120;2023-02-15T02:06:36;1.19;90.30
13713;DHT22;6928;50.546;7.120;2023-02-15T02:09:04;1.08;90.73
13713;DHT22;6928;50.546;7.120;2023-02-15T02:11:32;0.96;90.94
13713;DHT22;6928;50.546;7.120;2023-02-15T02:13:59;0.89;91.24
13713;DHT22;6928;50.546;7.120;2023-02-15T02:16:32;1.02;91.02
13713;DHT22;6928;50.546;7.120;2023-02-15T02:19:22;0.68;92.17
13713;DHT22;6928;50.546;7.120;2023-02-15T02:25:21;0.80;92.40
13713;DHT22;6928;50.546;7.120;2023-02-15T02:27:56;0.71;92.12
13713;DHT22;6928;50.546;7.120;2023-02-15T02:30:49;0.78;92.92
13713;DHT22;6928;50.546;7.120;2023-02-15T02:33:38;0.96;92.33
13713;DHT22;6928;50.546;7.120;2023-02-15T02:36:16;0.75;92.43
13713;DHT22;6928;50.546;7.120;2023-02-15T02:39:03;0.88;92.33
13713;DHT22;6928;50.546;7.120;2023-02-15T02:41:38;1.02;91.90
13713;DHT22;6928;50.546;7.120;2023-02-15T02:44:15;0.95;91.76
13713;DHT22;6928;50.546;7.120;2023-02-15T02:46:53;1.13;91.30
13713;DHT22;6928;50.546;7.120;2023-02-15T02:49:34;1.03;91.41
13713;DHT22;6928;50.546;7.120;2023-02-15T02:52:03;1.11;91.32
13713;DHT22;6928;50.546;7.120;2023-02-15T02:54:32;0.88;91.49
13713;DHT22;6928;50.546;7.120;2023-02-15T02:57:02;0.94;92.16
13713;DHT22;6928;50.546;7.120;2023-02-15T02:59:33;1.13;91.29
13713;DHT22;6928;50.546;7.120;2023-02-15T03:02:07;0.91;91.65
13713;DHT22;6928;50.546;7.120;2023-02-15T03:04:42;0.81;91.39
13713;DHT22;6928;50.546;7.120;2023-02-15T03:07:14;0.92;91.49
13713;DHT22;6928;50.546;7.120;2023-02-15T03:09:50;0.88;91.49
13713;DHT22;6928;50.546;7.120;2023-02-15T03:12:20;0.85;91.60
13713;DHT22;6928;50.546;7.120;2023-02-15T03:14:52;0.91;91.22
13713;DHT22;6928;50.546;7.120;2023-02-15T03:17:23;0.95;91.13
13713;DHT22;6928;50.546;7.120;2023-02-15T03:19:57;0.98;91.09
13713;DHT22;6928;50.546;7.120;2023-02-15T03:22:28;0.89;91.13
13713;DHT22;6928;50.546;7.120;2023-02-15T03:25:01;0.88;91.23
13713;DHT22;6928;50.546;7.120;2023-02-15T03:27:34;0.95;91.35
13713;DHT22;6928;50.546;7.120;2023-02-15T03:30:04;0.94;90.94
13713;DHT22;6928;50.546;7.120;2023-02-15T03:32:33;0.91;91.06
13713;DHT22;6928;50.546;7.120;2023-02-15T03:35:02;0.91;91.08
13713;DHT22;6928;50.546;7.120;2023-02-15T03:37:34;0.84;91.37
13713;DHT22;6928;50.546;7.120;2023-02-15T03:40:07;0.89;91.26
13713;DHT22;6928;50.546;7.120;2023-02-15T03:42:55;0.88;91.12
13713;DHT22;6928;50.546;7.120;2023-02-15T03:45:29;0.81;91.28
13713;DHT22;6928;50.546;7.120;2023-02-15T03:47:58;0.92;91.12
13713;DHT22;6928;50.546;7.120;2023-02-15T03:50:31;0.80;90.97
13713;DHT22;6928;50.546;7.120;2023-02-15T03:53:18;0.82;91.18
13713;DHT22;6928;50.546;7.120;2023-02-15T03:55:46;0.78;90.93
13713;DHT22;6928;50.546;7.120;2023-02-15T03:58:13;0.94;90.85
13713;DHT22;6928;50.546;7.120;2023-02-15T04:00:58;0.44;91.40
13713;DHT22;6928;50.546;7.120;2023-02-15T04:03:48;0.56;91.74
13713;DHT22;6928;50.546;7.120;2023-02-15T04:06:17;0.49;91.61
13713;DHT22;6928;50.546;7.120;2023-02-15T04:08:44;0.43;91.87
13713;DHT22;6928;50.546;7.120;2023-02-15T04:11:28;0.58;91.80
13713;DHT22;6928;50.546;7.120;2023-02-15T04:13:55;0.53;91.52
13713;DHT22;6928;50.546;7.120;2023-02-15T04:16:22;0.67;91.22
13713;DHT22;6928;50.546;7.120;2023-02-15T04:18:48;0.52;91.39
13713;DHT22;6928;50.546;7.120;2023-02-15T04:21:34;0.25;91.82
13713;DHT22;6928;50.546;7.120;2023-02-15T04:24:18;0.53;91.45
13713;DHT22;6928;50.546;7.120;2023-02-15T04:27:04;0.53;91.21
13713;DHT22;6928;50.546;7.120;2023-02-15T04:29:31;0.54;91.21
13713;DHT22;6928;50.546;7.120;2023-02-15T04:32:00;0.44;91.45
13713;DHT22;6928;50.546;7.120;2023-02-15T04:34:27;0.43;91.55
13713;DHT22;6928;50.546;7.120;2023-02-15T04:36:55;0.60;91.24
13713;DHT22;6928;50.546;7.120;2023-02-15T04:39:21;0.58;90.75
13713;DHT22;6928;50.546;7.120;2023-02-15T04:41:48;0.50;91.07
13713;DHT22;6928;50.546;7.120;2023-02-15T04:44:15;0.37;91.40
13713;DHT22;6928;50.546;7.120;2023-02-15T04:46:42;0.37;91.62
13713;DHT22;6928;50.546;7.120;2023-02-15T04:49:09;0.37;91.64
13713;DHT22;6928;50.546;7.120;2023-02-15T04:51:36;0.42;91.42
13713;DHT22;6928;50.546;7.120;2023-02-15T04:54:04;0.42;91.43
13713;DHT22;6928;50.546;7.120;2023-02-15T04:56:30;0.37;91.07
13713;DHT22;6928;50.546;7.120;2023-02-15T04:58:59;0.36;91.22
13713;DHT22;6928;50.546;7.120;2023-02-15T05:01:25;0.44;91.36
13713;DHT22;6928;50.546;7.120;2023-02-15T05:03:52;0.36;91.11
13713;DHT22;6928;50.546;7.120;2023-02-15T05:06:19;0.29;91.20
13713;DHT22;6928;50.546;7.120;2023-02-15T05:08:45;0.28;91.04
13713;DHT22;6928;50.546;7.120;2023-02-15T05:11:14;0.28;91.29
13713;DHT22;6928;50.546;7.120;2023-02-15T05:13:40;0.34;90.95
13713;DHT22;6928;50.546;7.120;2023-02-15T05:16:08;0.30;91.05
13713;DHT22;6928;50.546;7.120;2023-02-15T05:18:34;0.28;90.93
13713;DHT22;6928;50.546;7.120;2023-02-15T05:21:01;0.26;90.53
13713;DHT22;6928;50.546;7.120;2023-02-15T05:23:28;0.53;90.83
13713;DHT22;6928;50.546;7.120;2023-02-15T05:25:54;0.42;89.87
13713;DHT22;6928;50.546;7.120;2023-02-15T05:28:40;0.43;90.13
13713;DHT22;6928;50.546;7.120;2023-02-15T05:31:11;0.21;89.93
13713;DHT22;6928;50.546;7.120;2023-02-15T05:33:39;0.16;89.70
13713;DHT22;6928;50.546;7.120;2023-02-15T05:36:07;0.16;89.83
13713;DHT22;6928;50.546;7.120;2023-02-15T05:38:34;0.46;89.50
13713;DHT22;6928;50.546;7.120;2023-02-15T05:41:02;0.06;90.08
13713;DHT22;6928;50.546;7.120;2023-02-15T05:43:30;0.16;90.42
13713;DHT22;6928;50.546;7.120;2023-02-15T05:45:58;0.08;90.38
13713;DHT22;6928;50.546;7.120;2023-02-15T05:48:26;0.19;90.14
13713;DHT22;6928;50.546;7.120;2023-02-15T05:51:05;-0.01;90.48
13713;DHT22;6928;50.546;7.120;2023-02-15T05:53:34;0.25;89.74
13713;DHT22;6928;50.546;7.120;2023-02-15T05:56:02;0.21;89.83
13713;DHT22;6928;50.546;7.120;2023-02-15T05:58:31;0.05;90.02
13713;DHT22;6928;50.546;7.120;2023-02-15T06:00:59;-0.04;90.28
13713;DHT22;6928;50.546;7.120;2023-02-15T06:03:26;-0.02;90.19
13713;DHT22;6928;50.546;7.120;2023-02-15T06:05:54;0.05;90.25
13713;DHT22;6928;50.546;7.120;2023-02-15T06:08:20;0.18;90.01
13713;DHT22;6928;50.546;7.120;2023-02-15T06:10:47;0.09;89.82
13713;DHT22;6928;50.546;7.120;2023-02-15T06:13:14;0.25;89.66
13713;DHT22;6928;50.546;7.120;2023-02-15T06:15:41;0.29;89.33
13713;DHT22;6928;50.546;7.120;2023-02-15T06:18:09;0.23;89.16
13713;DHT22;6928;50.546;7.120;2023-02-15T06:20:36;0.05;89.59
13713;DHT22;6928;50.546;7.120;2023-02-15T06:23:02;-0.07;90.01
13713;DHT22;6928;50.546;7.120;2023-02-15T06:25:29;0.15;89.53
13713;DHT22;6928;50.546;7.120;2023-02-15T06:27:56;0.19;89.92
13713;DHT22;6928;50.546;7.120;2023-02-15T06:30:23;0.18;89.94
13713;DHT22;6928;50.546;7.120;2023-02-15T06:32:49;-0.01;89.73
13713;DHT22;6928;50.546;7.120;2023-02-15T06:35:17;0.06;89.93
13713;DHT22;6928;50.546;7.120;2023-02-15T06:37:45;0.03;89.88
13713;DHT22;6928;50.546;7.120;2023-02-15T06:40:12;0.02;90.22
13713;DHT22;6928;50.546;7.120;2023-02-15T06:42:40;-0.21;90.92
13713;DHT22;6928;50.546;7.120;2023-02-15T06:45:09;-0.18;90.48
13713;DHT22;6928;50.546;7.120;2023-02-15T06:47:36;-0.18;90.20
13713;DHT22;6928;50.546;7.120;2023-02-15T06:50:03;-0.05;90.05
13713;DHT22;6928;50.546;7.120;2023-02-15T06:52:31;-0.05;89.63
13713;DHT22;6928;50.546;7.120;2023-02-15T06:54:58;-0.43;90.11
13713;DHT22;6928;50.546;7.120;2023-02-15T06:57:25;-0.33;90.49
13713;DHT22;6928;50.546;7.120;2023-02-15T06:59:51;-0.25;90.01
13713;DHT22;6928;50.546;7.120;2023-02-15T07:02:18;-0.14;90.25
13713;DHT22;6928;50.546;7.120;2023-02-15T07:04:45;-0.08;89.56
13713;DHT22;6928;50.546;7.120;2023-02-15T07:07:13;0.11;89.41
13713;DHT22;6928;50.546;7.120;2023-02-15T07:09:41;0.18;89.06
13713;DHT22;6928;50.546;7.120;2023-02-15T07:12:09;0.16;88.99
13713;DHT22;6928;50.546;7.120;2023-02-15T07:14:53;0.05;89.10
13713;DHT22;6928;50.546;7.120;2023-02-15T07:17:20;0.11;89.44
13713;DHT22;6928;50.546;7.120;2023-02-15T07:19:47;0.12;89.37
13713;DHT22;6928;50.546;7.120;2023-02-15T07:22:14;0.36;89.66
13713;DHT22;6928;50.546;7.120;2023-02-15T07:24:42;0.29;89.30
13713;DHT22;6928;50.546;7.120;2023-02-15T07:27:08;0.29;89.37
13713;DHT22;6928;50.546;7.120;2023-02-15T07:29:35;0.16;89.57
13713;DHT22;6928;50.546;7.120;2023-02-15T07:32:02;-0.05;89.33
13713;DHT22;6928;50.546;7.120;2023-02-15T07:34:29;0.15;89.64
13713;DHT22;6928;50.546;7.120;2023-02-15T07:36:55;0.68;89.26
13713;DHT22;6928;50.546;7.120;2023-02-15T07:39:22;0.30;88.64
13713;DHT22;6928;50.546;7.120;2023-02-15T07:41:50;0.28;88.81
13713;DHT22;6928;50.546;7.120;2023-02-15T07:44:17;0.37;88.73
13713;DHT22;6928;50.546;7.120;2023-02-15T07:46:43;0.81;88.81
13713;DHT22;6928;50.546;7.120;2023-02-15T07:49:10;0.34;88.80
13713;DHT22;6928;50.546;7.120;2023-02-15T07:51:37;0.63;88.61
13713;DHT22;6928;50.546;7.120;2023-02-15T07:54:03;0.70;88.47
13713;DHT22;6928;50.546;7.120;2023-02-15T07:56:30;0.96;88.50
13713;DHT22;6928;50.546;7.120;2023-02-15T07:58:59;1.15;87.97
13713;DHT22;6928;50.546;7.120;2023-02-15T08:01:31;0.99;87.83
13713;DHT22;6928;50.546;7.120;2023-02-15T08:03:58;1.01;87.90
13713;DHT22;6928;50.546;7.120;2023-02-15T08:06:28;1.22;88.05
13713;DHT22;6928;50.546;7.120;2023-02-15T08:08:55;1.25;87.28
13713;DHT22;6928;50.546;7.120;2023-02-15T08:11:23;1.02;87.57
13713;DHT22;6928;50.546;7.120;2023-02-15T08:14:01;1.21;88.02
13713;DHT22;6928;50.546;7.120;2023-02-15T08:16:32;1.29;87.54
13713;DHT22;6928;50.546;7.120;2023-02-15T08:19:01;1.22;87.09
13713;DHT22;6928;50.546;7.120;2023-02-15T08:21:29;1.28;88.43
13713;DHT22;6928;50.546;7.120;2023-02-15T08:23:57;1.49;87.40
13713;DHT22;6928;50.546;7.120;2023-02-15T08:26:25;1.52;87.30
13713;DHT22;6928;50.546;7.120;2023-02-15T08:28:52;1.49;87.09
13713;DHT22;6928;50.546;7.120;2023-02-15T08:31:20;1.39;87.88
13713;DHT22;6928;50.546;7.120;2023-02-15T08:33:50;1.62;87.74
13713;DHT22;6928;50.546;7.120;2023-02-15T08:36:19;1.56;87.72
13713;DHT22;6928;50.546;7.120;2023-02-15T08:38:46;1.52;88.43
13713;DHT22;6928;50.546;7.120;2023-02-15T08:41:16;1.71;87.58
13713;DHT22;6928;50.546;7.120;2023-02-15T08:43:46;1.49;88.08
13713;DHT22;6928;50.546;7.120;2023-02-15T08:46:14;1.74;87.85
13713;DHT22;6928;50.546;7.120;2023-02-15T08:48:43;1.66;87.73
13713;DHT22;6928;50.546;7.120;2023-02-15T08:51:12;1.70;88.00
13713;DHT22;6928;50.546;7.120;2023-02-15T08:53:41;1.94;87.40
13713;DHT22;6928;50.546;7.120;2023-02-15T08:56:08;2.04;87.28
13713;DHT22;6928;50.546;7.120;2023-02-15T08:58:35;2.16;86.94
13713;DHT22;6928;50.546;7.120;2023-02-15T09:01:09;2.22;86.56
13713;DHT22;6928;50.546;7.120;2023-02-15T09:03:36;2.39;86.32
13713;DHT22;6928;50.546;7.120;2023-02-15T09:06:05;2.38;85.49
13713;DHT22;6928;50.546;7.120;2023-02-15T09:08:32;2.45;85.68
13713;DHT22;6928;50.546;7.120;2023-02-15T09:11:08;2.48;85.67
13713;DHT22;6928;50.546;7.120;2023-02-15T09:13:36;2.49;85.55
13713;DHT22;6928;50.546;7.120;2023-02-15T09:16:05;2.64;85.43
13713;DHT22;6928;50.546;7.120;2023-02-15T09:18:34;2.60;85.49
13713;DHT22;6928;50.546;7.120;2023-02-15T09:21:10;2.77;85.30
13713;DHT22;6928;50.546;7.120;2023-02-15T09:23:39;2.74;84.98
13713;DHT22;6928;50.546;7.120;2023-02-15T09:26:08;2.88;85.09
13713;DHT22;6928;50.546;7.120;2023-02-15T09:28:36;3.11;84.49
13713;DHT22;6928;50.546;7.120;2023-02-15T09:31:11;2.93;84.39
13713;DHT22;6928;50.546;7.120;2023-02-15T09:33:40;3.04;84.33
13713;DHT22;6928;50.546;7.120;2023-02-15T09:36:17;3.25;84.19
13713;DHT22;6928;50.546;7.120;2023-02-15T09:38:45;3.15;83.54
13713;DHT22;6928;50.546;7.120;2023-02-15T09:41:29;3.39;83.56
13713;DHT22;6928;50.546;7.120;2023-02-15T09:44:13;3.43;82.88
13713;DHT22;6928;50.546;7.120;2023-02-15T09:46:57;3.52;83.12
13713;DHT22;6928;50.546;7.120;2023-02-15T09:49:34;3.63;83.00
13713;DHT22;6928;50.546;7.120;2023-02-15T09:52:32;3.84;82.23
13713;DHT22;6928;50.546;7.120;2023-02-15T09:55:16;3.58;82.36
13713;DHT22;6928;50.546;7.120;2023-02-15T09:57:56;3.64;82.24
13713;DHT22;6928;50.546;7.120;2023-02-15T10:00:34;3.79;81.47
13713;DHT22;6928;50.546;7.120;2023-02-15T10:03:37;3.97;81.90
13713;DHT22;6928;50.546;7.120;2023-02-15T10:06:31;3.89;81.48
13713;DHT22;6928;50.546;7.120;2023-02-15T10:09:11;4.17;81.26
13713;DHT22;6928;50.546;7.120;2023-02-15T10:11:55;4.36;80.82
13713;DHT22;6928;50.546;7.120;2023-02-15T10:14:41;4.45;80.36
13713;DHT22;6928;50.546;7.120;2023-02-15T10:17:25;4.45;80.07
13713;DHT22;6928;50.546;7.120;2023-02-15T10:20:06;4.38;80.60
13713;DHT22;6928;50.546;7.120;2023-02-15T10:22:45;4.51;79.48
13713;DHT22;6928;50.546;7.120;2023-02-15T10:25:30;4.62;79.78
13713;DHT22;6928;50.546;7.120;2023-02-15T10:28:05;4.89;79.56
13713;DHT22;6928;50.546;7.120;2023-02-15T10:30:41;5.10;79.55
13713;DHT22;6928;50.546;7.120;2023-02-15T10:33:23;5.15;78.52
13713;DHT22;6928;50.546;7.120;2023-02-15T10:36:03;5.04;78.74
13713;DHT22;6928;50.546;7.120;2023-02-15T10:38:37;5.12;77.51
13713;DHT22;6928;50.546;7.120;2023-02-15T10:41:20;5.12;78.26
13713;DHT22;6928;50.546;7.120;2023-02-15T10:44:24;5.36;77.36
13713;DHT22;6928;50.546;7.120;2023-02-15T10:47:18;5.79;76.35
13713;DHT22;6928;50.546;7.120;2023-02-15T10:50:14;5.73;76.62
13713;DHT22;6928;50.546;7.120;2023-02-15T10:52:54;5.75;76.40
13713;DHT22;6928;50.546;7.120;2023-02-15T10:55:42;5.66;76.43
13713;DHT22;6928;50.546;7.120;2023-02-15T10:58:19;5.82;76.50
13713;DHT22;6928;50.546;7.120;2023-02-15T11:00:54;6.04;75.68
13713;DHT22;6928;50.546;7.120;2023-02-15T11:03:40;5.96;76.19
13713;DHT22;6928;50.546;7.120;2023-02-15T11:06:14;5.91;76.42
13713;DHT22;6928;50.546;7.120;2023-02-15T11:08:45;5.70;76.07
13713;DHT22;6928;50.546;7.120;2023-02-15T11:11:19;6.16;75.78
13713;DHT22;6928;50.546;7.120;2023-02-15T11:13:52;6.09;75.75
13713;DHT22;6928;50.546;7.120;2023-02-15T11:16:23;6.38;74.97
13713;DHT22;6928;50.546;7.120;2023-02-15T11:18:56;6.40;74.96
13713;DHT22;6928;50.546;7.120;2023-02-15T11:21:28;6.28;75.11
13713;DHT22;6928;50.546;7.120;2023-02-15T11:23:59;6.44;74.47
13713;DHT22;6928;50.546;7.120;2023-02-15T11:26:33;6.67;74.43
13713;DHT22;6928;50.546;7.120;2023-02-15T11:29:08;6.75;74.30
13713;DHT22;6928;50.546;7.120;2023-02-15T11:31:44;6.72;74.26
13713;DHT22;6928;50.546;7.120;2023-02-15T11:34:20;6.76;74.10
13713;DHT22;6928;50.546;7.120;2023-02-15T11:36:50;6.75;74.44
13713;DHT22;6928;50.546;7.120;2023-02-15T11:39:19;7.01;73.23
13713;DHT22;6928;50.546;7.120;2023-02-15T11:41:50;6.96;73.60
13713;DHT22;6928;50.546;7.120;2023-02-15T11:44:23;7.13;72.66
13713;DHT22;6928;50.546;7.120;2023-02-15T11:46:52;7.09;73.13
13713;DHT22;6928;50.546;7.120;2023-02-15T11:49:29;7.21;72.62
13713;DHT22;6928;50.546;7.120;2023-02-15T11:51:57;7.28;72.76
13713;DHT22;6928;50.546;7.120;2023-02-15T11:54:29;7.27;73.16
13713;DHT22;6928;50.546;7.120;2023-02-15T11:57:01;7.37;72.64
13713;DHT22;6928;50.546;7.120;2023-02-15T11:59:34;7.42;72.58
13713;DHT22;6928;50.546;7.120;2023-02-15T12:02:06;7.52;72.84
13713;DHT22;6928;50.546;7.120;2023-02-15T12:04:40;7.81;72.17
13713;DHT22;6928;50.546;7.120;2023-02-15T12:07:16;7.99;72.21
13713;DHT22;6928;50.546;7.120;2023-02-15T12:09:50;7.88;71.79
13713;DHT22;6928;50.546;7.120;2023-02-15T12:12:24;7.65;72.07
13713;DHT22;6928;50.546;7.120;2023-02-15T12:14:54;7.56;72.56
13713;DHT22;6928;50.546;7.120;2023-02-15T12:17:24;7.90;71.92
13713;DHT22;6928;50.546;7.120;2023-02-15T12:19:52;7.77;71.69
13713;DHT22;6928;50.546;7.120;2023-02-15T12:22:24;7.85;72.10
13713;DHT22;6928;50.546;7.120;2023-02-15T12:24:55;7.78;72.15
13713;DHT22;6928;50.546;7.120;2023-02-15T12:27:25;8.10;71.47
13713;DHT22;6928;50.546;7.120;2023-02-15T12:29:58;8.12;71.63
13713;DHT22;6928;50.546;7.120;2023-02-15T12:32:28;7.99;71.96
13713;DHT22;6928;50.546;7.120;2023-02-15T12:35:01;8.36;71.30
13713;DHT22;6928;50.546;7.120;2023-02-15T12:37:30;8.60;71.22
13713;DHT22;6928;50.546;7.120;2023-02-15T12:39:59;8.54;70.46
13713;DHT22;6928;50.546;7.120;2023-02-15T12:42:28;8.41;71.14
13713;DHT22;6928;50.546;7.120;2023-02-15T12:45:24;8.79;70.59
13713;DHT22;6928;50.546;7.120;2023-02-15T12:48:13;8.61;70.92
13713;DHT22;6928;50.546;7.120;2023-02-15T12:50:42;8.92;70.26
13713;DHT22;6928;50.546;7.120;2023-02-15T12:53:16;9.08;69.97
13713;DHT22;6928;50.546;7.120;2023-02-15T12:55:54;9.20;69.90
13713;DHT22;6928;50.546;7.120;2023-02-15T12:58:23;9.24;69.57
13713;DHT22;6928;50.546;7.120;2023-02-15T13:01:10;9.31;69.39
13713;DHT22;6928;50.546;7.120;2023-02-15T13:03:49;9.31;69.80
13713;DHT22;6928;50.546;7.120;2023-02-15T13:06:18;9.06;70.37
13713;DHT22;6928;50.546;7.120;2023-02-15T13:08:50;9.52;69.48
13713;DHT22;6928;50.546;7.120;2023-02-15T13:11:22;9.88;68.63
13713;DHT22;6928;50.546;7.120;2023-02-15T13:13:54;9.57;68.54
13713;DHT22;6928;50.546;7.120;2023-02-15T13:16:29;9.92;68.59
13713;DHT22;6928;50.546;7.120;2023-02-15T13:18:57;9.55;69.65
13713;DHT22;6928;50.546;7.120;2023-02-15T13:21:33;9.87;68.42
13713;DHT22;6928;50.546;7.120;2023-02-15T13:24:06;9.79;68.96
13713;DHT22;6928;50.546;7.120;2023-02-15T13:26:34;9.87;68.27
13713;DHT22;6928;50.546;7.120;2023-02-15T13:29:07;10.05;68.07
13713;DHT22;6928;50.546;7.120;2023-02-15T13:31:36;10.09;68.31
13713;DHT22;6928;50.546;7.120;2023-02-15T13:34:09;10.33;67.76
13713;DHT22;6928;50.546;7.120;2023-02-15T13:36:45;10.10;68.05
13713;DHT22;6928;50.546;7.120;2023-02-15T13:39:24;10.10;68.57
13713;DHT22;6928;50.546;7.120;2023-02-15T13:42:00;9.89;69.04
13713;DHT22;6928;50.546;7.120;2023-02-15T13:44:59;10.22;68.60
13713;DHT22;6928;50.546;7.120;2023-02-15T13:47:35;10.30;68.20
13713;DHT22;6928;50.546;7.120;2023-02-15T13:50:19;10.26;68.34
13713;DHT22;6928;50.546;7.120;2023-02-15T13:52:57;10.61;68.16
13713;DHT22;6928;50.546;7.120;2023-02-15T13:55:36;10.32;68.08
13713;DHT22;6928;50.546;7.120;2023-02-15T13:58:27;10.61;67.88
13713;DHT22;6928;50.546;7.120;2023-02-15T14:01:10;10.68;67.17
13713;DHT22;6928;50.546;7.120;2023-02-15T14:04:01;10.78;67.36
13713;DHT22;6928;50.546;7.120;2023-02-15T14:06:53;10.39;68.28
13713;DHT22;6928;50.546;7.120;2023-02-15T14:09:39;10.43;68.33
13713;DHT22;6928;50.546;7.120;2023-02-15T14:12:27;10.67;67.93
13713;DHT22;6928;50.546;7.120;2023-02-15T14:15:22;10.70;68.03
13713;DHT22;6928;50.546;7.120;2023-02-15T14:18:04;10.44;68.37
13713;DHT22;6928;50.546;7.120;2023-02-15T14:20:47;11.01;67.10
13713;DHT22;6928;50.546;7.120;2023-02-15T14:23:30;10.99;67.25
13713;DHT22;6928;50.546;7.120;2023-02-15T14:26:06;10.63;68.25
13713;DHT22;6928;50.546;7.120;2023-02-15T14:28:43;10.89;67.50
13713;DHT22;6928;50.546;7.120;2023-02-15T14:31:12;11.08;67.53
13713;DHT22;6928;50.546;7.120;2023-02-15T14:33:43;11.16;66.67
13713;DHT22;6928;50.546;7.120;2023-02-15T14:36:18;10.88;67.77
13713;DHT22;6928;50.546;7.120;2023-02-15T14:38:59;10.95;66.87
13713;DHT22;6928;50.546;7.120;2023-02-15T14:41:36;11.30;66.64
13713;DHT22;6928;50.546;7.120;2023-02-15T14:44:10;11.08;66.66
13713;DHT22;6928;50.546;7.120;2023-02-15T14:46:46;10.98;67.38
13713;DHT22;6928;50.546;7.120;2023-02-15T14:49:17;10.95;67.11
13713;DHT22;6928;50.546;7.120;2023-02-15T14:52:04;11.19;66.30
13713;DHT22;6928;50.546;7.120;2023-02-15T14:54:59;10.99;67.28
13713;DHT22;6928;50.546;7.120;2023-02-15T14:57:32;11.08;67.12
13713;DHT22;6928;50.546;7.120;2023-02-15T15:00:37;10.99;66.84
13713;DHT22;6928;50.546;7.120;2023-02-15T15:03:15;11.04;66.86
13713;DHT22;6928;50.546;7.120;2023-02-15T15:05:51;10.95;67.02
13713;DHT22;6928;50.546;7.120;2023-02-15T15:08:31;10.95;67.11
13713;DHT22;6928;50.546;7.120;2023-02-15T15:11:40;10.83;67.40
13713;DHT22;6928;50.546;7.120;2023-02-15T15:14:08;10.84;67.18
13713;DHT22;6928;50.546;7.120;2023-02-15T15:16:50;10.80;67.50
13713;DHT22;6928;50.546;7.120;2023-02-15T15:20:04;10.81;67.61
13713;DHT22;6928;50.546;7.120;2023-02-15T15:22:39;10.78;68.04
13713;DHT22;6928;50.546;7.120;2023-02-15T15:27:54;10.73;68.22
13713;DHT22;6928;50.546;7.120;2023-02-15T15:31:02;10.59;68.43
13713;DHT22;6928;50.546;7.120;2023-02-15T15:34:16;10.56;68.73
13713;DHT22;6928;50.546;7.120;2023-02-15T15:40:42;10.47;68.46
13713;DHT22;6928;50.546;7.120;2023-02-15T15:43:50;10.44;68.96
13713;DHT22;6928;50.546;7.120;2023-02-15T15:49:21;10.36;69.24
13713;DHT22;6928;50.546;7.120;2023-02-15T15:51:48;10.33;69.69
13713;DHT22;6928;50.546;7.120;2023-02-15T15:54:18;10.32;69.51
13713;DHT22;6928;50.546;7.120;2023-02-15T15:56:51;10.28;69.60
13713;DHT22;6928;50.546;7.120;2023-02-15T15:59:23;10.29;69.06
13713;DHT22;6928;50.546;7.120;2023-02-15T16:01:51;10.26;69.24
13713;DHT22;6928;50.546;7.120;2023-02-15T16:04:27;10.19;69.77
13713;DHT22;6928;50.546;7.120;2023-02-15T16:06:56;10.15;69.66
13713;DHT22;6928;50.546;7.120;2023-02-15T16:09:25;10.08;70.25
13713;DHT22;6928;50.546;7.120;2023-02-15T16:11:56;10.02;70.29
13713;DHT22;6928;50.546;7.120;2023-02-15T16:14:30;10.01;70.85
13713;DHT22;6928;50.546;7.120;2023-02-15T16:16:59;9.88;71.20
13713;DHT22;6928;50.546;7.120;2023-02-15T16:19:29;9.64;72.20
13713;DHT22;6928;50.546;7.120;2023-02-15T16:21:59;9.51;73.10
13713;DHT22;6928;50.546;7.120;2023-02-15T16:25:12;9.47;73.42
13713;DHT22;6928;50.546;7.120;2023-02-15T16:27:44;9.41;73.79
13713;DHT22;6928;50.546;7.120;2023-02-15T16:30:27;9.41;74.08
13713;DHT22;6928;50.546;7.120;2023-02-15T16:33:06;9.27;73.97
13713;DHT22;6928;50.546;7.120;2023-02-15T16:35:35;9.12;74.71
13713;DHT22;6928;50.546;7.120;2023-02-15T16:38:03;9.13;74.87
13713;DHT22;6928;50.546;7.120;2023-02-15T16:40:48;9.16;75.05
13713;DHT22;6928;50.546;7.120;2023-02-15T16:43:22;9.05;75.39
13713;DHT22;6928;50.546;7.120;2023-02-15T16:45:50;9.00;75.17
13713;DHT22;6928;50.546;7.120;2023-02-15T16:48:21;8.92;75.60
13713;DHT22;6928;50.546;7.120;2023-02-15T16:50:54;8.81;75.86